Time;durP1;ratioP1;P1;durP2;ratioP2;P2;SDS_P1;SDS_P2;PMS_P1;PMS_P2;Temp;Humidity;BMP_temperature;BMP_pressure;BME280_temperature;BME280_humidity;BME280_pressure;Samples;Min_cycle;Max_cycle;Signal;HPM_P1;HPM_P2
2022/01/08 00:01:00;;;;;;;6.30;5.10;;;1.20;99.90;;;;;;5076082;28;20045;-77
2022/01/08 00:03:27;;;;;;;6.73;6.00;;;1.20;99.90;;;;;;5075990;28;20459;-77
2022/01/08 00:05:56;;;;;;;7.30;4.97;;;1.20;99.90;;;;;;5075753;28;20050;-76
2022/01/08 00:08:23;;;;;;;6.40;4.80;;;1.30;99.90;;;;;;5075323;28;20063;-77
2022/01/08 00:10:50;;;;;;;8.33;4.23;;;1.40;99.90;;;;;;5075403;28;20066;-77
2022/01/08 00:13:17;;;;;;;6.63;4.43;;;1.40;99.90;;;;;;5075352;28;20067;-79
2022/01/08 00:15:43;;;;;;;5.73;4.93;;;1.40;99.90;;;;;;5074765;28;20052;-77
2022/01/08 00:18:10;;;;;;;6.70;6.10;;;1.40;99.90;;;;;;5075456;28;20090;-77
2022/01/08 00:20:37;;;;;;;6.70;5.40;;;1.50;99.90;;;;;;5075037;28;20110;-78
2022/01/08 00:23:05;;;;;;;7.93;4.70;;;1.50;99.90;;;;;;5075350;28;20057;-77
2022/01/08 00:25:31;;;;;;;6.43;4.90;;;1.60;99.90;;;;;;5074521;28;20489;-78
2022/01/08 00:27:58;;;;;;;9.60;5.23;;;1.60;99.90;;;;;;5074387;28;20136;-77
2022/01/08 00:30:25;;;;;;;3.47;3.17;;;1.60;99.90;;;;;;5074656;28;20045;-77
2022/01/08 00:32:51;;;;;;;4.80;4.23;;;1.60;99.90;;;;;;5074674;28;20053;-76
2022/01/08 00:35:18;;;;;;;5.20;4.40;;;1.70;99.90;;;;;;5073989;28;20041;-77
2022/01/08 00:37:45;;;;;;;6.47;4.90;;;1.60;99.90;;;;;;5074719;28;20044;-77
2022/01/08 00:40:14;;;;;;;5.43;4.87;;;1.60;99.90;;;;;;5074679;28;20052;-77
2022/01/08 00:42:41;;;;;;;5.80;5.27;;;1.60;99.90;;;;;;5074426;28;20048;-77
2022/01/08 00:45:09;;;;;;;6.00;4.77;;;1.60;99.90;;;;;;5073122;28;20512;-76
2022/01/08 00:47:36;;;;;;;7.57;5.63;;;1.60;99.90;;;;;;5073641;28;20248;-77
2022/01/08 00:50:06;;;;;;;7.10;5.80;;;1.50;99.90;;;;;;5073300;28;20583;-76
2022/01/08 00:52:33;;;;;;;4.77;4.30;;;1.50;99.90;;;;;;5073596;28;20044;-76
2022/01/08 00:55:00;;;;;;;6.60;5.43;;;1.40;99.90;;;;;;5072775;28;20459;-77
2022/01/08 00:57:28;;;;;;;5.50;4.90;;;1.40;99.90;;;;;;5073047;28;20044;-76
2022/01/08 00:59:54;;;;;;;7.53;5.07;;;1.30;99.90;;;;;;5073059;28;20066;-77
2022/01/08 01:02:21;;;;;;;7.77;5.90;;;1.30;99.90;;;;;;5073789;28;20098;-78
2022/01/08 01:04:48;;;;;;;7.27;5.40;;;1.30;99.90;;;;;;5073364;28;20079;-76
2022/01/08 01:07:14;;;;;;;7.37;6.63;;;1.20;99.90;;;;;;5073772;28;20052;-76
2022/01/08 01:09:41;;;;;;;4.13;3.60;;;1.20;99.90;;;;;;5073352;28;20044;-76
2022/01/08 01:12:08;;;;;;;6.30;4.97;;;1.20;99.90;;;;;;5073889;28;20046;-76
2022/01/08 01:14:36;;;;;;;7.83;6.23;;;1.20;99.90;;;;;;5072751;28;20177;-76
2022/01/08 01:17:04;;;;;;;6.90;5.73;;;1.20;99.90;;;;;;5072522;28;20071;-77
2022/01/08 01:19:30;;;;;;;9.13;6.13;;;1.20;99.90;;;;;;5072785;28;20113;-76
2022/01/08 01:21:59;;;;;;;11.17;6.37;;;1.10;99.90;;;;;;5072677;28;20049;-76
2022/01/08 01:24:27;;;;;;;7.10;6.37;;;1.10;99.90;;;;;;5071684;28;20055;-76
2022/01/08 01:27:18;;;;;;;10.47;7.17;;;1.10;99.90;;;;;;5072803;28;20053;-76
2022/01/08 01:29:53;;;;;;;7.23;6.40;;;1.20;99.90;;;;;;5073326;28;20723;-76
2022/01/08 01:43:36;;;;;;;7.43;5.53;;;1.10;99.90;;;;;;5073143;28;20079;-76
2022/01/08 01:48:48;;;;;;;7.80;5.67;;;1.20;99.90;;;;;;5072977;28;20390;-76
2022/01/08 01:51:19;;;;;;;6.53;5.27;;;1.20;99.90;;;;;;5073403;28;20041;-77
2022/01/08 01:53:46;;;;;;;8.25;6.43;;;1.10;99.90;;;;;;5073470;28;20052;-78
2022/01/08 01:56:15;;;;;;;10.23;7.53;;;1.10;99.90;;;;;;5072286;28;20044;-77
2022/01/08 01:58:41;;;;;;;6.50;5.67;;;1.10;99.90;;;;;;5072608;28;20044;-76
2022/01/08 02:01:09;;;;;;;12.27;5.67;;;1.10;99.90;;;;;;5072627;28;20048;-78
2022/01/08 02:03:36;;;;;;;7.97;6.83;;;1.10;99.90;;;;;;5073406;28;20045;-77
2022/01/08 02:06:03;;;;;;;11.67;9.20;;;1.20;99.90;;;;;;5071988;28;20055;-76
2022/01/08 02:08:30;;;;;;;7.50;6.33;;;1.10;99.90;;;;;;5072675;28;20480;-78
2022/01/08 02:10:57;;;;;;;8.13;6.80;;;1.10;99.90;;;;;;5072632;28;20052;-78
2022/01/08 02:13:24;;;;;;;9.43;5.60;;;1.00;99.90;;;;;;5072438;28;20454;-78
2022/01/08 02:15:53;;;;;;;8.90;6.67;;;1.00;99.90;;;;;;5071831;28;20049;-77
2022/01/08 02:18:22;;;;;;;9.67;7.43;;;1.00;99.90;;;;;;5072670;28;20075;-77
2022/01/08 02:20:50;;;;;;;11.97;7.43;;;1.00;99.90;;;;;;5072426;28;20048;-77
2022/01/08 02:23:17;;;;;;;11.90;7.87;;;1.00;99.90;;;;;;5072808;28;20094;-77
2022/01/08 02:25:44;;;;;;;9.20;7.13;;;0.90;99.90;;;;;;5072481;28;20045;-78
2022/01/08 02:28:10;;;;;;;10.87;7.77;;;1.00;99.90;;;;;;5074596;28;20094;-77
2022/01/08 02:30:37;;;;;;;9.93;6.23;;;1.00;99.90;;;;;;5076635;28;20106;-76
2022/01/08 02:33:04;;;;;;;12.07;8.33;;;1.00;99.90;;;;;;5076286;28;20060;-76
2022/01/08 02:35:30;;;;;;;9.83;7.07;;;1.00;99.90;;;;;;5075584;28;20063;-76
2022/01/08 02:37:58;;;;;;;12.97;9.37;;;1.00;99.90;;;;;;5077036;28;20121;-76
2022/01/08 02:40:25;;;;;;;11.60;7.90;;;1.10;99.90;;;;;;5076441;28;20052;-77
2022/01/08 02:42:59;;;;;;;11.60;8.43;;;1.10;99.90;;;;;;5075191;28;20497;-76
2022/01/08 02:45:26;;;;;;;14.53;8.20;;;1.10;99.90;;;;;;5075390;28;20480;-77
2022/01/08 02:47:54;;;;;;;11.50;7.13;;;1.20;99.90;;;;;;5075843;28;20067;-77
2022/01/08 02:50:21;;;;;;;12.70;8.40;;;1.20;99.90;;;;;;5075983;28;20412;-77
2022/01/08 02:52:48;;;;;;;12.43;8.37;;;1.20;99.90;;;;;;5075616;28;20505;-77
2022/01/08 02:55:18;;;;;;;12.57;7.83;;;1.20;99.90;;;;;;5075531;28;20408;-78
2022/01/08 02:57:46;;;;;;;12.03;7.43;;;1.20;99.90;;;;;;5075542;28;20044;-77
2022/01/08 03:00:16;;;;;;;8.73;7.83;;;1.20;99.90;;;;;;5075138;28;20094;-78
2022/01/08 03:02:44;;;;;;;4.03;3.30;;;1.20;99.90;;;;;;5076058;28;20051;-78
2022/01/08 03:05:11;;;;;;;13.17;8.83;;;1.30;99.90;;;;;;5075201;28;20045;-76
2022/01/08 03:07:39;;;;;;;11.00;7.33;;;1.30;99.90;;;;;;5075834;28;20171;-78
2022/01/08 03:10:06;;;;;;;8.37;6.40;;;1.30;99.90;;;;;;5075465;28;20404;-77
2022/01/08 03:12:38;;;;;;;10.70;8.40;;;1.30;99.90;;;;;;5075428;28;20049;-78
2022/01/08 03:15:06;;;;;;;;;;;1.40;99.90;;;;;;5075407;28;20049;-80
2022/01/08 03:17:32;;;;;;;10.33;6.97;;;1.40;99.90;;;;;;5075256;28;19921;-76
2022/01/08 03:20:04;;;;;;;11.30;8.27;;;1.40;99.90;;;;;;5075121;28;20045;-76
2022/01/08 03:22:31;;;;;;;10.75;6.80;;;1.40;99.90;;;;;;5075273;28;20057;-76
2022/01/08 03:24:58;;;;;;;9.80;7.70;;;1.50;99.90;;;;;;5074739;28;20613;-77
2022/01/08 03:27:24;;;;;;;9.73;7.40;;;1.50;99.90;;;;;;5074830;28;20049;-77
2022/01/08 03:29:55;;;;;;;9.60;7.90;;;1.50;99.90;;;;;;5075528;28;20041;-78
2022/01/08 03:32:22;;;;;;;10.02;7.50;;;1.40;99.90;;;;;;5075774;28;20045;-77
2022/01/08 03:34:48;;;;;;;10.83;7.83;;;1.50;99.90;;;;;;5074934;28;20590;-77
2022/01/08 03:37:15;;;;;;;9.43;7.53;;;1.40;99.90;;;;;;5074976;28;20062;-77
2022/01/08 03:39:43;;;;;;;11.40;7.23;;;1.40;99.90;;;;;;5074733;28;20181;-77
2022/01/08 03:42:10;;;;;;;10.33;7.70;;;1.50;99.90;;;;;;5074975;28;20493;-77
2022/01/08 03:44:37;;;;;;;11.53;7.90;;;1.40;99.90;;;;;;5074925;28;20071;-77
2022/01/08 03:47:23;;;;;;;13.93;8.77;;;1.50;99.90;;;;;;5074994;28;20044;-76
2022/01/08 03:49:50;;;;;;;13.00;8.20;;;1.40;99.90;;;;;;5075034;28;20133;-76
2022/01/08 03:52:17;;;;;;;14.70;9.27;;;1.40;99.90;;;;;;5075310;28;20049;-77
2022/01/08 03:54:44;;;;;;;9.77;7.03;;;1.40;99.90;;;;;;5075306;28;20041;-77
2022/01/08 03:57:10;;;;;;;12.87;6.93;;;1.50;99.90;;;;;;5075075;28;20097;-77
2022/01/08 03:59:37;;;;;;;13.30;7.80;;;1.40;99.90;;;;;;5075210;28;20045;-76
2022/01/08 04:02:05;;;;;;;11.10;6.47;;;1.40;99.90;;;;;;5075189;28;20538;-78
2022/01/08 04:04:32;;;;;;;9.60;6.27;;;1.50;99.90;;;;;;5074886;28;20049;-77
2022/01/08 04:06:59;;;;;;;13.40;7.83;;;1.50;99.90;;;;;;5074365;28;20053;-77
2022/01/08 04:09:27;;;;;;;10.90;6.57;;;1.50;99.90;;;;;;5075000;28;20048;-77
2022/01/08 04:11:55;;;;;;;10.20;7.80;;;1.50;99.90;;;;;;5075671;28;20131;-77
2022/01/08 04:14:22;;;;;;;9.87;8.07;;;1.50;99.90;;;;;;5073952;28;20086;-77
2022/01/08 04:16:52;;;;;;;8.73;7.10;;;1.40;99.90;;;;;;5073992;28;20505;-77
2022/01/08 04:19:20;;;;;;;10.13;7.83;;;1.40;99.90;;;;;;5074131;28;20441;-77
2022/01/08 04:21:59;;;;;;;10.90;6.67;;;1.40;99.90;;;;;;5074347;28;20053;-78
2022/01/08 04:24:27;;;;;;;13.63;10.43;;;1.40;99.90;;;;;;5073952;28;20067;-77
2022/01/08 04:26:54;;;;;;;9.17;7.57;;;1.40;99.90;;;;;;5074235;28;20102;-76
2022/01/08 04:29:20;;;;;;;7.80;6.77;;;1.40;99.90;;;;;;5073847;28;20040;-78
2022/01/08 04:31:47;;;;;;;9.40;6.90;;;1.40;99.90;;;;;;5074189;28;20045;-78
2022/01/08 04:34:13;;;;;;;10.50;6.87;;;1.30;99.90;;;;;;5073174;28;20094;-77
2022/01/08 04:36:41;;;;;;;10.83;7.03;;;1.30;99.90;;;;;;5073754;28;20044;-78
2022/01/08 04:39:08;;;;;;;11.33;7.17;;;1.30;99.90;;;;;;5074448;28;20421;-77
2022/01/08 04:41:38;;;;;;;10.73;8.70;;;1.30;99.90;;;;;;5073531;28;20048;-75
2022/01/08 04:44:07;;;;;;;9.70;7.87;;;1.30;99.90;;;;;;5073231;28;20044;-76
2022/01/08 04:46:33;;;;;;;13.43;9.23;;;1.30;99.90;;;;;;5073418;28;20132;-77
2022/01/08 04:49:00;;;;;;;10.73;7.47;;;1.40;99.90;;;;;;5073412;28;20408;-77
2022/01/08 04:51:26;;;;;;;10.73;7.83;;;1.40;99.90;;;;;;5072749;28;20109;-76
2022/01/08 04:53:54;;;;;;;11.83;7.57;;;1.40;99.90;;;;;;5073576;28;20048;-76
2022/01/08 04:56:21;;;;;;;13.47;9.37;;;1.40;99.90;;;;;;5073013;28;20048;-76
2022/01/08 04:58:48;;;;;;;11.97;7.30;;;1.40;99.90;;;;;;5073316;28;20102;-77
2022/01/08 05:01:15;;;;;;;12.23;7.00;;;1.40;99.90;;;;;;5073259;28;20110;-77
2022/01/08 05:03:41;;;;;;;10.70;7.00;;;1.40;99.90;;;;;;5073520;28;20079;-76
2022/01/08 05:06:08;;;;;;;10.30;7.13;;;1.40;99.90;;;;;;5072845;28;20049;-76
2022/01/08 05:08:34;;;;;;;9.93;7.63;;;1.40;99.90;;;;;;5073434;28;20041;-76
2022/01/08 05:11:03;;;;;;;14.77;8.10;;;1.40;99.90;;;;;;5073959;28;20114;-76
2022/01/08 05:13:30;;;;;;;10.53;6.63;;;1.40;99.90;;;;;;5074037;28;20113;-76
2022/01/08 05:15:57;;;;;;;12.23;8.93;;;1.40;99.90;;;;;;5072653;28;20106;-76
2022/01/08 05:18:24;;;;;;;10.73;8.37;;;1.40;99.90;;;;;;5073198;28;20075;-75
2022/01/08 05:20:56;;;;;;;12.00;7.73;;;1.40;99.90;;;;;;5072991;28;20044;-76
2022/01/08 05:23:23;;;;;;;10.32;7.97;;;1.40;99.90;;;;;;5073119;28;20072;-78
2022/01/08 05:25:49;;;;;;;14.03;8.07;;;1.40;99.90;;;;;;5073479;28;20562;-78
2022/01/08 05:28:17;;;;;;;7.97;6.50;;;1.40;99.90;;;;;;5073606;28;20048;-78
2022/01/08 05:30:44;;;;;;;10.73;6.80;;;1.40;99.90;;;;;;5073874;28;20079;-79
2022/01/08 05:33:11;;;;;;;9.50;7.73;;;1.40;99.90;;;;;;5072981;28;20048;-78
2022/01/08 05:35:37;;;;;;;11.27;7.47;;;1.40;99.90;;;;;;5072192;28;20497;-76
2022/01/08 05:38:04;;;;;;;11.57;8.43;;;1.40;99.90;;;;;;5072702;28;20044;-78
2022/01/08 05:40:31;;;;;;;8.57;7.70;;;1.30;99.90;;;;;;5072562;28;20060;-77
2022/01/08 05:42:58;;;;;;;14.07;9.90;;;1.30;99.90;;;;;;5072791;28;20106;-77
2022/01/08 05:45:28;;;;;;;9.63;7.27;;;1.30;99.90;;;;;;5072247;28;20555;-77
2022/01/08 05:47:56;;;;;;;7.77;7.00;;;1.30;99.90;;;;;;5073303;28;20600;-77
2022/01/08 05:50:22;;;;;;;11.10;8.17;;;1.30;99.90;;;;;;5073165;28;20471;-77
2022/01/08 05:52:49;;;;;;;11.73;8.97;;;1.30;99.90;;;;;;5072930;28;20040;-77
2022/01/08 05:55:16;;;;;;;10.60;7.47;;;1.30;99.90;;;;;;5071975;28;20051;-76
2022/01/08 05:57:43;;;;;;;10.60;7.07;;;1.30;99.90;;;;;;5072002;28;20458;-77
2022/01/08 06:00:10;;;;;;;9.10;8.20;;;1.30;99.90;;;;;;5072625;28;20137;-76
2022/01/08 06:02:38;;;;;;;10.13;8.33;;;1.30;99.90;;;;;;5072341;28;20098;-77
2022/01/08 06:05:06;;;;;;;9.40;7.17;;;1.20;99.90;;;;;;5071788;28;20123;-78
2022/01/08 06:07:33;;;;;;;10.07;7.50;;;1.20;99.90;;;;;;5072168;28;20102;-77
2022/01/08 06:10:00;;;;;;;10.30;8.13;;;1.20;99.90;;;;;;5072391;28;20048;-77
2022/01/08 06:12:26;;;;;;;10.07;8.33;;;1.20;99.90;;;;;;5072510;28;20044;-76
2022/01/08 06:14:53;;;;;;;10.30;7.27;;;1.10;99.90;;;;;;5072110;28;20055;-78
2022/01/08 06:17:20;;;;;;;8.33;7.43;;;1.20;99.90;;;;;;5073131;28;20408;-77
2022/01/08 06:19:48;;;;;;;11.10;8.23;;;1.20;99.90;;;;;;5072225;28;20554;-76
2022/01/08 06:22:15;;;;;;;9.93;7.87;;;1.10;99.90;;;;;;5072791;28;20098;-77
2022/01/08 06:24:42;;;;;;;9.47;7.83;;;1.10;99.90;;;;;;5071703;28;20497;-77
2022/01/08 06:27:09;;;;;;;8.67;7.20;;;1.00;99.90;;;;;;5072471;28;20044;-76
2022/01/08 06:29:36;;;;;;;9.40;6.77;;;1.00;99.90;;;;;;5072200;28;20102;-77
2022/01/08 06:32:03;;;;;;;10.33;6.80;;;0.90;99.90;;;;;;5072338;28;20565;-78
2022/01/08 06:34:29;;;;;;;11.17;6.53;;;0.80;99.90;;;;;;5073577;28;20079;-77
2022/01/08 06:36:57;;;;;;;10.90;7.53;;;0.70;99.90;;;;;;5071886;28;20094;-77
2022/01/08 06:39:24;;;;;;;11.73;7.13;;;0.70;99.90;;;;;;5071955;28;20386;-77
2022/01/08 06:41:50;;;;;;;8.60;7.73;;;0.60;99.90;;;;;;5072051;28;20048;-78
2022/01/08 06:44:17;;;;;;;8.67;6.67;;;0.70;99.90;;;;;;5071854;28;20514;-77
2022/01/08 06:46:43;;;;;;;13.57;9.03;;;0.60;99.90;;;;;;5072364;28;20045;-77
2022/01/08 06:49:10;;;;;;;9.67;8.23;;;0.50;99.90;;;;;;5072192;28;20496;-76
2022/01/08 06:51:37;;;;;;;11.23;8.03;;;0.50;99.90;;;;;;5071684;28;20041;-77
2022/01/08 06:54:07;;;;;;;11.07;8.30;;;0.50;99.90;;;;;;5071259;28;20144;-77
2022/01/08 06:56:34;;;;;;;13.27;8.43;;;0.60;99.90;;;;;;5071986;28;20190;-77
2022/01/08 06:59:04;;;;;;;11.20;8.27;;;0.60;99.90;;;;;;5072379;28;20056;-77
2022/01/08 07:01:30;;;;;;;11.50;7.87;;;0.60;99.90;;;;;;5072215;28;20052;-77
2022/01/08 07:03:57;;;;;;;10.17;7.93;;;0.60;99.90;;;;;;5071918;28;20065;-77
2022/01/08 07:06:24;;;;;;;8.23;7.33;;;0.60;99.90;;;;;;5072065;28;20041;-76
2022/01/08 07:08:55;;;;;;;10.47;8.70;;;0.70;99.90;;;;;;5072150;28;20048;-76
2022/01/08 07:11:25;;;;;;;8.07;6.27;;;0.80;99.90;;;;;;5072454;28;20044;-77
2022/01/08 07:13:52;;;;;;;15.68;9.10;;;0.80;99.90;;;;;;5072963;28;20049;-77
2022/01/08 07:16:21;;;;;;;12.67;8.47;;;0.80;99.90;;;;;;5075681;28;20049;-77
2022/01/08 07:18:48;;;;;;;10.77;7.47;;;0.80;99.90;;;;;;5075904;28;20048;-78
2022/01/08 07:21:15;;;;;;;13.13;7.67;;;0.90;99.90;;;;;;5076349;28;20074;-77
2022/01/08 07:23:41;;;;;;;11.00;7.93;;;0.90;99.90;;;;;;5075859;28;20105;-77
2022/01/08 07:26:08;;;;;;;10.33;7.93;;;1.00;99.90;;;;;;5075238;28;20404;-78
2022/01/08 07:28:37;;;;;;;12.33;8.30;;;1.00;99.90;;;;;;5076213;28;20049;-76
2022/01/08 07:31:06;;;;;;;15.00;9.23;;;1.10;99.90;;;;;;5076270;28;20409;-77
2022/01/08 07:33:32;;;;;;;12.17;8.47;;;1.10;99.90;;;;;;5075887;28;20049;-78
2022/01/08 07:35:59;;;;;;;15.60;10.40;;;1.10;99.90;;;;;;5074762;28;20173;-77
2022/01/08 07:38:26;;;;;;;13.83;7.50;;;1.10;99.90;;;;;;5074951;28;20129;-77
2022/01/08 07:40:52;;;;;;;14.17;7.30;;;1.10;99.90;;;;;;5074872;28;20048;-77
2022/01/08 07:43:19;;;;;;;13.20;8.27;;;1.20;99.90;;;;;;5075187;28;20102;-77
2022/01/08 07:45:48;;;;;;;10.90;7.80;;;1.20;99.90;;;;;;5074481;28;20049;-77
2022/01/08 07:48:15;;;;;;;14.07;8.97;;;1.20;99.90;;;;;;5075012;28;20044;-76
2022/01/08 07:50:42;;;;;;;11.23;7.50;;;1.20;99.90;;;;;;5074807;28;20466;-77
2022/01/08 07:53:08;;;;;;;8.57;7.03;;;1.20;99.90;;;;;;5074782;28;20098;-77
2022/01/08 07:55:38;;;;;;;13.03;9.60;;;1.20;99.90;;;;;;5074350;28;20040;-76
2022/01/08 07:58:04;;;;;;;12.63;7.70;;;1.20;99.90;;;;;;5074986;28;20040;-78
2022/01/08 08:00:34;;;;;;;9.90;6.63;;;1.10;99.90;;;;;;5074772;28;20118;-78
2022/01/08 08:03:02;;;;;;;11.07;7.23;;;1.10;99.90;;;;;;5074883;28;20049;-77
2022/01/08 08:05:30;;;;;;;12.73;9.67;;;1.20;99.90;;;;;;5074095;28;20045;-76
2022/01/08 08:07:56;;;;;;;10.53;7.27;;;1.20;99.90;;;;;;5074849;28;20055;-79
2022/01/08 08:10:25;;;;;;;12.20;8.40;;;1.20;99.90;;;;;;5077948;28;20496;-81
2022/01/08 08:12:53;;;;;;;11.27;9.47;;;1.20;99.90;;;;;;5082348;28;20048;-83
2022/01/08 08:15:20;;;;;;;9.47;6.97;;;1.20;99.90;;;;;;5080209;28;20053;-83
2022/01/08 08:17:47;;;;;;;7.33;6.53;;;1.30;99.90;;;;;;5079856;28;20045;-84
2022/01/08 08:20:15;;;;;;;8.90;7.20;;;1.30;99.90;;;;;;5076902;28;20485;-77
2022/01/08 08:22:42;;;;;;;10.43;7.50;;;1.30;99.90;;;;;;5075343;28;20048;-79
2022/01/08 08:25:12;;;;;;;12.93;7.40;;;1.30;99.90;;;;;;5074550;28;20045;-79
2022/01/08 08:27:40;;;;;;;14.90;9.80;;;1.30;99.90;;;;;;5074946;28;20053;-80
2022/01/08 08:30:08;;;;;;;9.53;7.73;;;1.40;99.90;;;;;;5078015;28;20295;-79
2022/01/08 08:32:38;;;;;;;12.00;7.20;;;1.40;99.90;;;;;;5077744;28;20048;-81
2022/01/08 08:35:05;;;;;;;8.70;7.90;;;1.50;99.90;;;;;;5076798;28;20105;-78
2022/01/08 08:37:35;;;;;;;11.37;7.37;;;1.40;99.90;;;;;;5076315;28;20040;-78
2022/01/08 08:40:01;;;;;;;11.10;7.10;;;1.50;99.90;;;;;;5076004;28;20048;-78
2022/01/08 08:42:28;;;;;;;8.83;6.43;;;1.50;99.90;;;;;;5076103;28;20531;-81
2022/01/08 08:44:55;;;;;;;10.57;6.63;;;1.50;99.90;;;;;;5077247;28;20052;-82
2022/01/08 08:47:22;;;;;;;9.93;6.47;;;1.60;99.90;;;;;;5074753;28;20056;-77
2022/01/08 08:49:48;;;;;;;12.13;7.83;;;1.50;99.90;;;;;;5074620;28;20097;-76
2022/01/08 08:52:15;;;;;;;12.07;8.27;;;1.50;99.90;;;;;;5075055;28;20044;-77
2022/01/08 08:54:43;;;;;;;12.20;8.60;;;1.60;99.90;;;;;;5073522;28;20416;-77
2022/01/08 08:57:10;;;;;;;8.47;7.60;;;1.50;99.90;;;;;;5074340;28;20098;-78
2022/01/08 08:59:38;;;;;;;7.17;6.47;;;1.50;99.90;;;;;;5074554;28;20501;-79
2022/01/08 09:02:05;;;;;;;8.20;6.77;;;1.60;99.90;;;;;;5074695;28;20572;-77
2022/01/08 09:04:31;;;;;;;8.93;7.37;;;1.50;99.90;;;;;;5074008;28;20040;-80
2022/01/08 09:06:58;;;;;;;8.50;6.47;;;1.50;99.90;;;;;;5074935;28;20052;-78
2022/01/08 09:09:25;;;;;;;6.90;5.67;;;1.50;99.90;;;;;;5075122;28;20044;-77
2022/01/08 09:11:53;;;;;;;6.43;4.93;;;1.50;99.90;;;;;;5074944;28;20086;-78
2022/01/08 09:14:20;;;;;;;9.17;6.37;;;1.60;99.90;;;;;;5074305;28;20044;-79
2022/01/08 09:16:52;;;;;;;9.27;6.17;;;1.70;99.90;;;;;;5073789;28;20045;-77
2022/01/08 09:19:19;;;;;;;9.60;5.10;;;1.70;99.90;;;;;;5077099;28;20492;-78
2022/01/08 09:21:46;;;;;;;8.13;6.47;;;1.80;99.90;;;;;;5074345;28;20696;-78
2022/01/08 09:24:13;;;;;;;9.53;7.30;;;1.80;99.90;;;;;;5073705;28;20416;-77
2022/01/08 09:26:40;;;;;;;7.73;5.53;;;1.80;99.90;;;;;;5073834;28;20057;-78
2022/01/08 09:29:08;;;;;;;8.60;6.53;;;1.90;99.90;;;;;;5073897;28;20055;-78
2022/01/08 09:31:35;;;;;;;6.47;5.20;;;2.00;99.90;;;;;;5073495;28;20102;-79
2022/01/08 09:34:02;;;;;;;11.40;5.83;;;2.10;99.90;;;;;;5073188;28;20072;-78
2022/01/08 09:36:28;;;;;;;6.80;5.37;;;2.20;99.90;;;;;;5073170;28;20044;-78
2022/01/08 09:38:56;;;;;;;6.83;5.47;;;2.20;99.90;;;;;;5073925;28;20048;-78
2022/01/08 09:41:22;;;;;;;5.80;4.40;;;2.20;99.90;;;;;;5074251;28;20467;-78
2022/01/08 09:43:49;;;;;;;9.20;5.73;;;2.20;99.90;;;;;;5074376;28;20479;-79
2022/01/08 09:46:21;;;;;;;6.90;5.30;;;2.30;99.90;;;;;;5074836;28;20048;-77
2022/01/08 09:48:48;;;;;;;10.38;6.00;;;2.40;99.90;;;;;;5075683;28;20072;-78
2022/01/08 09:51:15;;;;;;;7.83;5.70;;;2.60;99.90;;;;;;5074709;28;20485;-75
2022/01/08 09:53:43;;;;;;;7.17;5.10;;;2.80;99.90;;;;;;5073788;28;20041;-79
2022/01/08 09:56:10;;;;;;;12.30;6.00;;;2.90;99.90;;;;;;5072130;28;20043;-77
2022/01/08 09:58:37;;;;;;;6.63;5.93;;;3.20;99.90;;;;;;5074892;28;20044;-76
2022/01/08 10:01:24;;;;;;;8.23;5.67;;;3.40;99.90;;;;;;5072100;28;20481;-76
2022/01/08 10:03:51;;;;;;;8.63;5.37;;;3.50;99.90;;;;;;5072243;28;20560;-77
2022/01/08 10:06:22;;;;;;;5.97;5.40;;;3.50;99.90;;;;;;5072790;28;20455;-76
2022/01/08 10:08:50;;;;;;;7.60;5.18;;;3.30;99.90;;;;;;5073480;28;20101;-77
2022/01/08 10:11:17;;;;;;;6.93;5.37;;;3.00;99.90;;;;;;5072451;28;20044;-77
2022/01/08 10:13:45;;;;;;;6.07;5.47;;;2.90;99.90;;;;;;5072152;28;20459;-76
2022/01/08 10:19:00;;;;;;;7.53;5.13;;;2.70;99.90;;;;;;5073720;28;20122;-77
2022/01/08 10:21:28;;;;;;;6.03;4.80;;;2.80;99.90;;;;;;5074091;28;20044;-77
2022/01/08 10:23:57;;;;;;;6.53;5.83;;;2.80;99.90;;;;;;5073649;28;20040;-76
2022/01/08 10:26:31;;;;;;;7.83;5.50;;;2.70;99.90;;;;;;5073508;28;20119;-77
2022/01/08 10:28:59;;;;;;;8.07;5.33;;;2.90;99.90;;;;;;5073829;28;20102;-76
2022/01/08 10:31:28;;;;;;;7.77;4.80;;;2.70;99.90;;;;;;5073401;28;20044;-77
2022/01/08 10:34:05;;;;;;;5.13;4.67;;;2.60;99.90;;;;;;5072955;28;20045;-78
2022/01/08 10:36:37;;;;;;;9.30;5.47;;;3.10;99.90;;;;;;5073010;28;20041;-76
2022/01/08 10:39:06;;;;;;;9.43;7.00;;;2.90;99.90;;;;;;5073907;28;20048;-77
2022/01/08 10:41:33;;;;;;;7.63;4.97;;;2.90;99.90;;;;;;5072291;28;20117;-77
2022/01/08 10:44:13;;;;;;;6.77;4.40;;;3.00;99.90;;;;;;5072068;28;20056;-76
2022/01/08 10:46:45;;;;;;;6.37;4.90;;;3.30;99.90;;;;;;5072482;28;20475;-78
2022/01/08 10:49:14;;;;;;;11.65;7.72;;;3.30;99.90;;;;;;5073793;28;20048;-79
2022/01/08 10:51:42;;;;;;;8.83;4.83;;;3.60;99.90;;;;;;5076653;28;20467;-78
2022/01/08 10:54:11;;;;;;;6.80;5.03;;;3.60;99.90;;;;;;5075635;28;20079;-78
2022/01/08 10:56:40;;;;;;;6.53;5.83;;;3.70;99.90;;;;;;5075518;28;20561;-77
2022/01/08 10:59:16;;;;;;;6.83;5.03;;;4.80;99.90;;;;;;5075444;28;20385;-76
2022/01/08 11:01:54;;;;;;;7.50;4.57;;;6.30;99.90;;;;;;5075841;28;20052;-77
2022/01/08 11:04:51;;;;;;;6.90;4.97;;;7.00;99.90;;;;;;5076643;28;20044;-79
2022/01/08 11:07:21;;;;;;;7.87;5.43;;;7.60;99.90;;;;;;5030282;28;20467;-78
2022/01/08 11:09:49;;;;;;;6.57;5.03;;;6.80;99.90;;;;;;5078086;28;20049;-78
2022/01/08 11:12:18;;;;;;;5.57;4.63;;;7.00;99.90;;;;;;5077721;28;20056;-78
2022/01/08 11:15:00;;;;;;;5.67;5.03;;;8.30;99.90;;;;;;5076562;28;20051;-77
2022/01/08 11:17:28;;;;;;;4.75;4.35;;;9.40;99.90;;;;;;5086715;28;20040;-78
2022/01/08 11:19:57;;;;;;;8.10;5.73;;;10.30;99.90;;;;;;5076453;28;20040;-77
2022/01/08 11:22:27;;;;;;;7.23;4.77;;;9.40;99.90;;;;;;5076193;28;20049;-77
2022/01/08 11:24:59;;;;;;;6.50;4.97;;;9.50;99.90;;;;;;5076851;28;20040;-77
2022/01/08 11:27:30;;;;;;;6.93;4.63;;;9.50;99.90;;;;;;5078855;28;20060;-76
2022/01/08 11:30:10;;;;;;;7.03;5.27;;;8.20;99.90;;;;;;5076298;28;20048;-76
2022/01/08 11:32:38;;;;;;;6.90;5.87;;;7.90;99.90;;;;;;5076384;28;20051;-76
2022/01/08 11:35:07;;;;;;;8.50;5.97;;;8.60;99.90;;;;;;5075505;28;20048;-76
2022/01/08 11:37:35;;;;;;;7.97;5.87;;;9.60;99.90;;;;;;5075810;28;20068;-77
2022/01/08 11:40:06;;;;;;;8.20;5.43;;;11.00;99.90;;;;;;5075629;28;20500;-76
2022/01/08 11:42:35;;;;;;;4.77;4.27;;;10.80;99.90;;;;;;5075637;28;20526;-77
2022/01/08 11:45:05;;;;;;;7.13;4.60;;;11.30;99.90;;;;;;5075739;28;20136;-77
2022/01/08 11:47:31;;;;;;;7.07;4.45;;;12.30;99.90;;;;;;5076063;28;20040;-77
2022/01/08 11:50:04;;;;;;;9.75;5.43;;;13.60;92.70;;;;;;5075888;28;20049;-77
2022/01/08 11:52:31;;;;;;;5.07;4.35;;;13.50;92.20;;;;;;5076082;28;20071;-77
2022/01/08 11:55:00;;;;;;;7.03;4.78;;;13.00;92.90;;;;;;5076043;28;20044;-77
2022/01/08 11:57:32;;;;;;;7.22;4.70;;;13.60;90.60;;;;;;5077187;28;20178;-77
2022/01/08 11:59:59;;;;;;;5.88;4.80;;;13.70;89.50;;;;;;5079093;28;20484;-77
2022/01/08 12:02:41;;;;;;;6.90;5.18;;;13.00;89.20;;;;;;5082456;28;20055;-78
2022/01/08 12:05:09;;;;;;;8.75;4.72;;;10.80;99.70;;;;;;5083783;28;20501;-77
2022/01/08 12:07:40;;;;;;;7.80;5.13;;;9.90;99.90;;;;;;5083762;28;20040;-77
2022/01/08 12:10:18;;;;;;;6.90;4.70;;;7.30;99.90;;;;;;5081704;28;20098;-78
2022/01/08 12:12:51;;;;;;;7.93;4.90;;;6.80;99.90;;;;;;5082529;28;20056;-78
2022/01/08 12:15:39;;;;;;;10.17;6.33;;;6.10;99.90;;;;;;5080183;28;20079;-77
2022/01/08 12:18:05;;;;;;;6.10;5.13;;;5.90;99.90;;;;;;5075928;28;20048;-77
2022/01/08 12:20:50;;;;;;;8.43;5.80;;;5.70;99.90;;;;;;5076301;28;20332;-77
2022/01/08 12:23:35;;;;;;;7.73;4.97;;;5.30;99.90;;;;;;5075638;28;20098;-78
2022/01/08 12:26:06;;;;;;;7.80;6.07;;;5.20;99.90;;;;;;5075205;28;20048;-77
2022/01/08 12:29:07;;;;;;;6.75;5.32;;;4.80;99.90;;;;;;5075844;28;20051;-79
2022/01/08 12:31:41;;;;;;;8.77;5.47;;;4.90;99.90;;;;;;5075961;28;20143;-78
2022/01/08 12:34:44;;;;;;;9.00;6.10;;;4.70;99.90;;;;;;5075214;28;20120;-77
2022/01/08 12:37:12;;;;;;;7.43;5.90;;;4.30;99.90;;;;;;5074959;28;20101;-78
2022/01/08 12:39:54;;;;;;;7.50;5.00;;;4.30;99.90;;;;;;5075591;28;20109;-78
2022/01/08 12:42:41;;;;;;;8.25;4.97;;;4.20;99.90;;;;;;5076335;28;20076;-78
2022/01/08 12:45:20;;;;;;;5.70;3.93;;;4.20;99.90;;;;;;5080137;28;20055;-81
2022/01/08 12:48:05;;;;;;;6.07;4.47;;;4.00;99.90;;;;;;5078402;28;20060;-77
2022/01/08 12:50:33;;;;;;;5.17;3.90;;;4.00;99.90;;;;;;5076945;28;20447;-78
2022/01/08 12:53:28;;;;;;;7.20;5.20;;;3.90;99.90;;;;;;5076953;28;20050;-77
2022/01/08 12:56:15;;;;;;;6.83;4.97;;;3.80;99.90;;;;;;5075622;28;20055;-76
2022/01/08 12:58:51;;;;;;;9.73;4.80;;;3.70;99.90;;;;;;5075501;28;20048;-75
2022/01/08 13:01:25;;;;;;;5.17;3.90;;;3.70;99.90;;;;;;5075353;28;20063;-76
2022/01/08 13:03:55;;;;;;;5.60;4.40;;;3.70;99.90;;;;;;5075654;28;20106;-76
2022/01/08 13:06:35;;;;;;;4.10;3.63;;;3.60;99.90;;;;;;5074977;28;20057;-77
2022/01/08 13:09:03;;;;;;;4.50;4.10;;;3.90;99.90;;;;;;5074904;28;20113;-77
2022/01/08 13:11:33;;;;;;;6.23;3.83;;;4.10;99.90;;;;;;5075655;28;20112;-78
2022/01/08 13:14:02;;;;;;;4.53;4.03;;;4.80;99.90;;;;;;5075430;28;20135;-79
2022/01/08 13:16:32;;;;;;;5.83;4.17;;;6.50;99.90;;;;;;5075251;28;20074;-78
2022/01/08 13:19:01;;;;;;;6.38;3.60;;;8.10;99.90;;;;;;5075719;28;20504;-77